Time;durP1;ratioP1;P1;durP2;ratioP2;P2;SDS_P1;SDS_P2;PMS_P1;PMS_P2;Temp;Humidity;BMP_temperature;BMP_pressure;BME280_temperature;BME280_humidity;BME280_pressure;Samples;Min_cycle;Max_cycle;Signal;HPM_P1;HPM_P2
2023/04/13 00:00:20;;;;;;;2.80;1.02;;;8.50;99.90;;;;;;5126011;27;20454;-69
2023/04/13 00:02:52;;;;;;;4.88;1.10;;;8.60;99.90;;;;;;5122078;27;20035;-70
2023/04/13 00:05:18;;;;;;;3.22;1.23;;;8.60;99.90;;;;;;5121688;27;20408;-69
2023/04/13 00:07:44;;;;;;;3.47;0.98;;;8.60;99.90;;;;;;5121171;27;20550;-69
2023/04/13 00:10:10;;;;;;;4.38;0.85;;;8.60;99.90;;;;;;5124843;27;20046;-69
2023/04/13 00:12:36;;;;;;;6.95;1.48;;;8.70;99.90;;;;;;5121842;27;20106;-69
2023/04/13 00:15:04;;;;;;;3.20;0.90;;;8.60;99.90;;;;;;5125643;27;20030;-69
2023/04/13 00:17:32;;;;;;;1.85;0.63;;;8.60;99.90;;;;;;5119666;27;20051;-68
2023/04/13 00:19:58;;;;;;;2.72;0.70;;;8.50;99.90;;;;;;5122047;27;20110;-68
2023/04/13 00:22:27;;;;;;;6.60;1.15;;;8.60;99.90;;;;;;5122226;27;21090;-68
2023/04/13 00:24:54;;;;;;;4.20;1.20;;;8.60;99.90;;;;;;5122717;27;20380;-69
2023/04/13 00:27:21;;;;;;;7.05;1.15;;;8.60;99.90;;;;;;5118163;27;20027;-69
2023/04/13 00:29:47;;;;;;;7.32;1.15;;;8.60;99.90;;;;;;5122497;27;20018;-68
2023/04/13 00:32:13;;;;;;;4.15;0.80;;;8.60;99.90;;;;;;5116788;27;20387;-69
2023/04/13 00:34:39;;;;;;;3.25;1.00;;;8.70;99.90;;;;;;5119619;27;20107;-69
2023/04/13 00:37:06;;;;;;;2.75;0.75;;;8.70;99.90;;;;;;5123641;27;20019;-69
2023/04/13 00:39:32;;;;;;;6.68;1.00;;;8.70;99.90;;;;;;5114566;27;20063;-68
2023/04/13 00:41:58;;;;;;;3.88;1.30;;;8.80;99.90;;;;;;5124003;27;20032;-69
2023/04/13 00:44:24;;;;;;;2.55;0.80;;;8.80;99.90;;;;;;5126191;27;20039;-69
2023/04/13 00:46:53;;;;;;;3.97;0.80;;;8.70;99.90;;;;;;5127094;27;20071;-69
2023/04/13 00:49:20;;;;;;;6.45;1.70;;;8.80;99.90;;;;;;5118573;28;20023;-69
2023/04/13 00:51:46;;;;;;;3.35;0.88;;;8.80;99.90;;;;;;5123304;27;20481;-68
2023/04/13 00:54:14;;;;;;;6.38;1.23;;;8.70;99.90;;;;;;5123253;28;20383;-72
2023/04/13 00:56:41;;;;;;;4.80;0.80;;;8.80;99.90;;;;;;5121406;27;20019;-69
2023/04/13 00:59:11;;;;;;;7.28;1.10;;;8.80;99.90;;;;;;5123820;27;20050;-68
2023/04/13 01:01:45;;;;;;;9.60;2.15;;;8.70;99.90;;;;;;5118711;27;20027;-68
2023/04/13 01:04:18;;;;;;;7.60;1.25;;;8.70;99.90;;;;;;5120276;28;20027;-68
2023/04/13 01:06:53;;;;;;;5.28;1.15;;;8.70;99.90;;;;;;5120864;27;20034;-69
2023/04/13 01:09:29;;;;;;;6.25;1.73;;;8.70;99.90;;;;;;5121757;28;20019;-68
2023/04/13 01:12:05;;;;;;;5.72;1.67;;;8.70;99.90;;;;;;5119806;27;20571;-69
2023/04/13 01:14:55;;;;;;;8.13;1.80;;;8.80;99.90;;;;;;5126229;28;20438;-69
2023/04/13 01:17:26;;;;;;;5.03;1.40;;;8.80;99.90;;;;;;5125612;28;20031;-68
2023/04/13 01:19:56;;;;;;;7.55;1.55;;;8.70;99.90;;;;;;5122920;27;20593;-69
2023/04/13 01:22:27;;;;;;;6.18;1.55;;;8.80;99.90;;;;;;5117394;28;20015;-69
2023/04/13 01:25:02;;;;;;;6.65;1.45;;;8.80;99.90;;;;;;5120309;27;20106;-69
2023/04/13 01:27:46;;;;;;;7.28;1.38;;;8.70;99.90;;;;;;5123801;28;20030;-69
2023/04/13 01:30:20;;;;;;;7.35;2.10;;;8.70;99.90;;;;;;5120436;27;20024;-70
2023/04/13 01:32:51;;;;;;;8.32;1.38;;;8.70;99.90;;;;;;5125800;27;20067;-71
2023/04/13 01:35:18;;;;;;;5.10;1.40;;;8.70;99.90;;;;;;5128972;27;20051;-69
2023/04/13 01:37:51;;;;;;;5.05;1.40;;;8.70;99.90;;;;;;5133400;27;20459;-70
2023/04/13 01:40:18;;;;;;;5.85;1.52;;;8.70;99.90;;;;;;5127173;27;20103;-68
2023/04/13 01:42:44;;;;;;;9.75;1.30;;;8.70;99.90;;;;;;5126934;27;20023;-70
2023/04/13 01:45:20;;;;;;;6.00;1.30;;;8.70;99.90;;;;;;5131454;27;20483;-69
2023/04/13 01:47:54;;;;;;;4.20;1.20;;;8.70;99.90;;;;;;5123591;27;20107;-69
2023/04/13 01:50:27;;;;;;;5.53;1.70;;;8.80;99.90;;;;;;5126780;27;20487;-69
2023/04/13 01:52:56;;;;;;;10.70;1.65;;;8.80;99.90;;;;;;5122919;27;20023;-69
2023/04/13 01:55:23;;;;;;;9.90;1.85;;;8.80;99.90;;;;;;5125312;27;20016;-69
2023/04/13 01:57:53;;;;;;;8.93;1.92;;;8.80;99.90;;;;;;5124169;27;20053;-68
2023/04/13 02:00:19;;;;;;;7.03;1.58;;;8.80;99.90;;;;;;5119159;27;20019;-70
2023/04/13 02:02:45;;;;;;;8.77;1.85;;;8.70;99.90;;;;;;5124930;27;20015;-68
2023/04/13 02:05:10;;;;;;;12.85;2.35;;;8.80;99.90;;;;;;5124249;27;20035;-68
2023/04/13 02:07:38;;;;;;;5.95;1.85;;;8.70;99.90;;;;;;5126316;27;20031;-69
2023/04/13 02:10:05;;;;;;;5.82;1.73;;;8.70;99.90;;;;;;5127192;27;20039;-68
2023/04/13 02:12:34;;;;;;;10.15;1.58;;;8.80;99.90;;;;;;5128322;27;20026;-68
2023/04/13 02:15:00;;;;;;;7.00;1.58;;;8.80;99.90;;;;;;5128413;27;20115;-68
2023/04/13 02:17:29;;;;;;;9.75;1.80;;;8.80;99.90;;;;;;5128393;27;20024;-69
2023/04/13 02:19:56;;;;;;;7.85;1.90;;;8.80;99.90;;;;;;5125950;27;20027;-70
2023/04/13 02:22:22;;;;;;;7.03;1.90;;;8.70;99.90;;;;;;5124654;27;20840;-69
2023/04/13 02:24:49;;;;;;;7.68;1.85;;;8.70;99.90;;;;;;5119167;27;20031;-69
2023/04/13 02:27:16;;;;;;;6.93;1.70;;;8.70;99.90;;;;;;5124450;27;20027;-69
2023/04/13 02:29:42;;;;;;;12.85;1.73;;;8.80;99.90;;;;;;5122729;27;20027;-69
2023/04/13 02:32:08;;;;;;;8.57;1.70;;;8.70;99.90;;;;;;5121781;27;20095;-68
2023/04/13 02:34:34;;;;;;;10.10;2.58;;;8.80;99.90;;;;;;5126488;27;20103;-69
2023/04/13 02:37:01;;;;;;;10.10;2.00;;;8.80;99.90;;;;;;5121949;27;20079;-68
2023/04/13 02:39:27;;;;;;;7.47;1.70;;;8.70;99.90;;;;;;5125428;27;20026;-69
2023/04/13 02:41:53;;;;;;;5.90;1.90;;;8.60;99.90;;;;;;5123710;27;20735;-70
2023/04/13 02:44:18;;;;;;;9.48;1.52;;;8.70;99.90;;;;;;5124499;27;20100;-69
2023/04/13 02:46:44;;;;;;;8.05;1.40;;;8.80;99.90;;;;;;5122649;27;20047;-68
2023/04/13 02:49:09;;;;;;;8.73;1.73;;;8.80;99.90;;;;;;5123632;27;20075;-69
2023/04/13 02:51:35;;;;;;;8.15;1.63;;;8.80;99.90;;;;;;5125343;27;20025;-68
2023/04/13 02:54:02;;;;;;;7.43;1.60;;;8.80;99.90;;;;;;5124121;27;20114;-70
2023/04/13 02:56:29;;;;;;;6.10;1.50;;;8.80;99.90;;;;;;5121199;27;20027;-70
2023/04/13 02:58:56;;;;;;;3.60;1.38;;;8.90;99.90;;;;;;5119502;27;20030;-69
2023/04/13 03:01:23;;;;;;;8.77;1.20;;;8.80;99.90;;;;;;5122976;27;20015;-68
2023/04/13 03:03:50;;;;;;;4.15;1.25;;;8.80;99.90;;;;;;5120216;27;20396;-68
2023/04/13 03:06:16;;;;;;;7.40;1.58;;;8.90;99.90;;;;;;5124786;27;20376;-68
2023/04/13 03:08:42;;;;;;;6.90;1.58;;;8.80;99.90;;;;;;5122246;27;20015;-68
2023/04/13 03:11:10;;;;;;;6.75;1.35;;;8.90;99.90;;;;;;5127313;27;20031;-68
2023/04/13 03:13:36;;;;;;;5.43;1.20;;;8.80;99.90;;;;;;5122611;27;20034;-68
2023/04/13 03:16:03;;;;;;;5.90;1.02;;;8.80;99.90;;;;;;5122537;27;20023;-68
2023/04/13 03:18:30;;;;;;;9.18;1.20;;;8.90;99.90;;;;;;5122263;27;20014;-69
2023/04/13 03:20:56;;;;;;;6.15;1.20;;;8.90;99.90;;;;;;5124479;27;20489;-68
2023/04/13 03:23:21;;;;;;;8.65;1.42;;;8.90;99.90;;;;;;5128822;27;20088;-70
2023/04/13 03:25:47;;;;;;;5.30;1.75;;;8.90;99.90;;;;;;5121721;27;20031;-68
2023/04/13 03:28:13;;;;;;;5.90;1.90;;;8.90;99.90;;;;;;5126887;27;20023;-69
2023/04/13 03:30:38;;;;;;;7.13;1.65;;;8.90;99.90;;;;;;5122477;27;20095;-69
2023/04/13 03:33:04;;;;;;;10.77;1.80;;;8.80;99.90;;;;;;5124242;27;20506;-69
2023/04/13 03:35:30;;;;;;;7.00;2.22;;;8.80;99.90;;;;;;5127696;27;20473;-68
2023/04/13 03:37:55;;;;;;;9.32;2.45;;;8.80;99.90;;;;;;5121957;27;20027;-69
2023/04/13 03:40:21;;;;;;;6.72;1.70;;;8.80;99.90;;;;;;5121875;27;20046;-69
2023/04/13 03:42:46;;;;;;;8.63;1.98;;;8.80;99.90;;;;;;5118821;27;20081;-68
2023/04/13 03:45:12;;;;;;;5.35;1.92;;;8.80;99.90;;;;;;5125811;27;20076;-68
2023/04/13 03:47:38;;;;;;;7.82;2.47;;;8.90;99.90;;;;;;5129797;27;20027;-68
2023/04/13 03:50:04;;;;;;;9.70;2.63;;;8.80;99.90;;;;;;5118958;27;21358;-68
2023/04/13 03:52:30;;;;;;;7.43;2.20;;;8.80;99.90;;;;;;5119306;27;20019;-68
2023/04/13 03:54:56;;;;;;;7.45;2.08;;;8.80;99.90;;;;;;5120439;27;21434;-68
2023/04/13 03:57:22;;;;;;;7.85;2.63;;;8.80;99.90;;;;;;5123994;27;20090;-68
2023/04/13 03:59:48;;;;;;;7.05;3.10;;;8.80;99.90;;;;;;5126437;27;20379;-68
2023/04/13 04:02:13;;;;;;;9.70;2.70;;;8.80;99.90;;;;;;5124037;27;20360;-68
2023/04/13 04:04:39;;;;;;;8.63;2.60;;;8.80;99.90;;;;;;5122766;27;20031;-68
2023/04/13 04:07:04;;;;;;;5.10;2.17;;;8.80;99.90;;;;;;5121631;27;20026;-68
2023/04/13 04:09:30;;;;;;;4.03;2.33;;;8.80;99.90;;;;;;5123075;27;20031;-68
2023/04/13 04:11:56;;;;;;;8.70;2.60;;;8.80;99.90;;;;;;5117119;27;20502;-68
2023/04/13 04:14:22;;;;;;;10.80;3.25;;;8.80;99.90;;;;;;5123727;27;20042;-68
2023/04/13 04:16:47;;;;;;;8.68;2.75;;;8.80;99.90;;;;;;5121684;27;20486;-69
2023/04/13 04:19:13;;;;;;;9.30;3.13;;;8.80;99.90;;;;;;5115168;27;20076;-68
2023/04/13 04:21:45;;;;;;;9.35;3.15;;;8.80;99.90;;;;;;5122012;27;20020;-68
2023/04/13 04:24:19;;;;;;;4.35;2.67;;;8.80;99.90;;;;;;5128194;27;20036;-68
2023/04/13 04:26:49;;;;;;;6.93;3.03;;;8.80;99.90;;;;;;5118664;27;20023;-68
2023/04/13 04:29:20;;;;;;;6.38;2.45;;;8.80;99.90;;;;;;5123646;27;20030;-67
2023/04/13 04:31:51;;;;;;;5.40;2.40;;;8.90;99.90;;;;;;5124718;27;20015;-68
2023/04/13 04:34:18;;;;;;;11.02;3.30;;;8.80;99.90;;;;;;5122978;27;20028;-68
2023/04/13 04:36:50;;;;;;;6.57;2.58;;;8.80;99.90;;;;;;5119537;27;20015;-70
2023/04/13 04:39:21;;;;;;;7.25;2.25;;;8.90;99.90;;;;;;5123747;27;20019;-68
2023/04/13 04:41:48;;;;;;;6.30;2.55;;;8.90;99.90;;;;;;5124674;28;20031;-69
2023/04/13 04:44:15;;;;;;;9.32;2.35;;;8.80;99.90;;;;;;5116033;28;20099;-68
2023/04/13 04:46:42;;;;;;;6.45;2.33;;;8.80;99.90;;;;;;5120419;28;20028;-68
2023/04/13 04:49:08;;;;;;;4.72;1.80;;;8.70;99.90;;;;;;5120588;27;20043;-68
2023/04/13 04:51:35;;;;;;;8.75;2.25;;;8.70;99.90;;;;;;5123983;28;20076;-68
2023/04/13 04:54:02;;;;;;;6.85;2.20;;;8.80;99.90;;;;;;5122857;28;20102;-68
2023/04/13 04:56:28;;;;;;;6.93;2.20;;;8.80;99.90;;;;;;5126214;28;20043;-69
2023/04/13 04:58:54;;;;;;;5.65;1.92;;;8.80;99.90;;;;;;5122983;27;20084;-68
2023/04/13 05:01:25;;;;;;;5.97;2.05;;;8.70;99.90;;;;;;5122910;27;20023;-68
2023/04/13 05:03:51;;;;;;;5.20;2.00;;;8.60;99.90;;;;;;5125050;27;20023;-68
2023/04/13 05:06:18;;;;;;;8.05;1.73;;;8.60;99.90;;;;;;5125329;27;20447;-69
2023/04/13 05:08:43;;;;;;;6.00;1.88;;;8.60;99.90;;;;;;5122857;27;20023;-69
2023/04/13 05:11:09;;;;;;;7.10;2.17;;;8.70;99.90;;;;;;5125213;27;20395;-69
2023/04/13 05:13:35;;;;;;;5.93;1.70;;;8.70;99.90;;;;;;5131194;27;20019;-69
2023/04/13 05:16:01;;;;;;;8.18;2.97;;;8.70;99.90;;;;;;5121848;27;20055;-68
2023/04/13 05:18:30;;;;;;;6.38;1.85;;;8.60;99.90;;;;;;5121471;27;20087;-69
2023/04/13 05:20:56;;;;;;;6.35;1.65;;;8.60;99.90;;;;;;5121824;27;20046;-69
2023/04/13 05:23:22;;;;;;;5.20;1.80;;;8.60;99.90;;;;;;5129572;27;20015;-69
2023/04/13 05:25:47;;;;;;;6.15;1.88;;;8.60;99.90;;;;;;5125452;27;20068;-70
2023/04/13 05:28:13;;;;;;;5.32;1.50;;;8.50;99.90;;;;;;5125384;27;20087;-69
2023/04/13 05:30:39;;;;;;;6.55;1.83;;;8.60;99.90;;;;;;5125969;27;20023;-68
2023/04/13 05:33:06;;;;;;;2.50;1.33;;;8.50;99.90;;;;;;5122508;27;20022;-69
2023/04/13 05:35:32;;;;;;;5.25;1.50;;;8.50;99.90;;;;;;5130099;27;20024;-69
2023/04/13 05:37:59;;;;;;;2.65;1.33;;;8.60;99.90;;;;;;5122588;27;20416;-68
2023/04/13 05:40:25;;;;;;;5.90;1.45;;;8.60;99.90;;;;;;5125390;27;20118;-69
2023/04/13 05:42:50;;;;;;;3.97;1.30;;;8.60;99.90;;;;;;5129968;27;20054;-69
2023/04/13 05:45:16;;;;;;;4.80;1.65;;;8.60;99.90;;;;;;5133133;27;20043;-70
2023/04/13 05:47:44;;;;;;;3.47;1.35;;;8.60;99.90;;;;;;5125675;27;20026;-69
2023/04/13 05:50:10;;;;;;;5.63;1.50;;;8.70;99.90;;;;;;5127063;27;20023;-69
2023/04/13 05:52:35;;;;;;;4.75;1.40;;;8.70;99.90;;;;;;5122450;27;20015;-69
2023/04/13 05:55:02;;;;;;;4.75;1.20;;;8.70;99.90;;;;;;5126487;27;20494;-71
2023/04/13 05:57:28;;;;;;;4.93;1.70;;;8.60;99.90;;;;;;5133115;27;20479;-69
2023/04/13 05:59:54;;;;;;;5.05;1.50;;;8.70;99.90;;;;;;5130183;27;20030;-73
2023/04/13 06:02:19;;;;;;;6.28;1.98;;;8.80;99.90;;;;;;5119047;27;20051;-70
2023/04/13 06:04:45;;;;;;;5.82;1.90;;;8.70;99.90;;;;;;5124103;27;20036;-68
2023/04/13 06:07:15;;;;;;;8.45;1.77;;;8.70;99.90;;;;;;5121976;27;20016;-68
2023/04/13 06:09:41;;;;;;;10.43;2.13;;;8.80;99.90;;;;;;5122539;27;20050;-70
2023/04/13 06:12:06;;;;;;;8.02;2.47;;;8.80;99.90;;;;;;5128153;27;20403;-69
2023/04/13 06:14:33;;;;;;;8.68;2.03;;;8.80;99.90;;;;;;5133096;27;20490;-69
2023/04/13 06:16:59;;;;;;;7.72;2.22;;;8.90;99.90;;;;;;5129560;27;20011;-68
2023/04/13 06:19:25;;;;;;;6.30;2.10;;;8.80;99.90;;;;;;5123385;27;20023;-67
2023/04/13 06:21:51;;;;;;;7.45;1.92;;;8.90;99.90;;;;;;5134567;27;20027;-67
2023/04/13 06:24:17;;;;;;;5.93;2.13;;;8.90;99.90;;;;;;5130783;27;20027;-68
2023/04/13 06:26:43;;;;;;;9.43;1.90;;;8.90;99.90;;;;;;5128539;27;20030;-68
2023/04/13 06:29:08;;;;;;;5.97;2.00;;;9.00;99.90;;;;;;5128970;27;20031;-68
2023/04/13 06:31:34;;;;;;;5.75;1.77;;;9.10;99.90;;;;;;5123616;27;20034;-68
2023/04/13 06:34:01;;;;;;;4.50;2.00;;;9.10;99.90;;;;;;5131952;27;20023;-70
2023/04/13 06:36:27;;;;;;;5.07;2.08;;;9.00;99.90;;;;;;5123310;27;20120;-72
2023/04/13 06:38:53;;;;;;;6.07;2.00;;;9.10;99.90;;;;;;5125620;27;20531;-68
2023/04/13 06:41:19;;;;;;;5.93;1.55;;;9.10;99.90;;;;;;5126838;27;20047;-69
2023/04/13 06:43:45;;;;;;;6.47;2.10;;;9.10;99.90;;;;;;5123880;27;20475;-69
2023/04/13 06:46:11;;;;;;;6.00;1.90;;;9.20;99.90;;;;;;5125551;27;20030;-70
2023/04/13 06:48:36;;;;;;;9.38;2.78;;;9.30;99.90;;;;;;5121093;27;20023;-68
2023/04/13 06:51:02;;;;;;;5.28;1.75;;;9.30;99.90;;;;;;5120553;27;20119;-68
2023/04/13 06:53:28;;;;;;;9.90;2.13;;;9.30;99.90;;;;;;5125855;27;20476;-69
2023/04/13 06:55:54;;;;;;;7.47;2.30;;;9.20;99.90;;;;;;5124910;27;20068;-68
2023/04/13 06:58:22;;;;;;;8.77;1.92;;;9.30;99.90;;;;;;5126785;27;20479;-69
2023/04/13 07:00:47;;;;;;;7.97;1.77;;;9.40;99.90;;;;;;5122695;27;20114;-69
2023/04/13 07:03:14;;;;;;;6.82;2.05;;;9.40;99.90;;;;;;5110822;27;20158;-69
2023/04/13 07:05:40;;;;;;;6.50;2.17;;;9.50;99.90;;;;;;5111553;27;20505;-68
2023/04/13 07:08:06;;;;;;;5.75;2.03;;;9.50;99.90;;;;;;5118050;27;20019;-68
2023/04/13 07:10:31;;;;;;;14.65;2.50;;;9.50;99.90;;;;;;5115158;27;20059;-67
2023/04/13 07:12:57;;;;;;;7.22;1.80;;;9.50;99.90;;;;;;5118910;27;20364;-69
2023/04/13 07:15:23;;;;;;;8.70;2.00;;;9.60;99.90;;;;;;5117502;27;20027;-69
2023/04/13 07:17:48;;;;;;;13.45;2.63;;;9.60;99.90;;;;;;5119556;27;20027;-70
2023/04/13 07:20:15;;;;;;;11.80;2.47;;;9.70;99.90;;;;;;5118673;27;20027;-69
2023/04/13 07:22:40;;;;;;;12.77;2.35;;;9.70;99.90;;;;;;5117885;27;20077;-69
2023/04/13 07:25:06;;;;;;;12.48;2.58;;;9.70;99.90;;;;;;5118055;27;20483;-69
2023/04/13 07:27:32;;;;;;;10.43;2.55;;;9.80;99.90;;;;;;5114442;27;20037;-70
2023/04/13 07:29:59;;;;;;;18.00;2.45;;;9.90;99.90;;;;;;5116357;27;20027;-68
2023/04/13 07:32:26;;;;;;;7.10;2.25;;;10.00;99.90;;;;;;5118704;27;20517;-68
2023/04/13 07:34:52;;;;;;;10.43;2.20;;;10.10;99.90;;;;;;5113646;27;20383;-68
2023/04/13 07:37:17;;;;;;;11.88;2.33;;;10.10;99.90;;;;;;5116043;27;20027;-70
2023/04/13 07:39:43;;;;;;;10.25;2.55;;;10.10;99.90;;;;;;5118003;27;20023;-70
2023/04/13 07:42:09;;;;;;;14.07;2.40;;;10.20;99.90;;;;;;5116287;27;20027;-70
2023/04/13 07:44:34;;;;;;;9.93;2.28;;;10.30;99.90;;;;;;5116263;27;20143;-70
2023/04/13 07:47:01;;;;;;;11.57;2.45;;;10.20;99.90;;;;;;5117164;27;20055;-69
2023/04/13 07:49:27;;;;;;;12.07;2.50;;;10.30;99.90;;;;;;5116863;27;20023;-70
2023/04/13 07:51:53;;;;;;;12.98;3.20;;;10.40;99.90;;;;;;5118825;27;20016;-71
2023/04/13 07:54:19;;;;;;;14.88;2.63;;;10.50;99.90;;;;;;5113475;27;20039;-70
2023/04/13 07:56:45;;;;;;;8.52;2.45;;;10.60;99.90;;;;;;5125575;27;20506;-70
2023/04/13 07:59:12;;;;;;;12.48;2.38;;;10.80;99.90;;;;;;5127315;27;20031;-69
2023/04/13 08:01:38;;;;;;;11.23;2.30;;;11.00;99.90;;;;;;5115750;27;20501;-69
2023/04/13 08:04:04;;;;;;;10.13;2.70;;;11.20;99.90;;;;;;5124145;27;20110;-69
2023/04/13 08:06:30;;;;;;;14.15;2.55;;;11.40;99.90;;;;;;5122202;27;20029;-70
2023/04/13 08:08:56;;;;;;;15.15;2.92;;;11.40;99.90;;;;;;5128979;27;20475;-70
2023/04/13 08:11:22;;;;;;;12.05;2.47;;;11.40;99.90;;;;;;5131572;27;20094;-70
2023/04/13 08:13:48;;;;;;;9.75;2.13;;;11.40;99.90;;;;;;5124177;27;20019;-70
2023/04/13 08:16:15;;;;;;;11.55;3.03;;;11.30;99.90;;;;;;5121315;27;20178;-70
2023/04/13 08:18:41;;;;;;;13.98;3.13;;;11.20;99.90;;;;;;5123448;27;20020;-70
2023/04/13 08:21:09;;;;;;;15.57;2.72;;;11.10;99.90;;;;;;5123717;27;20031;-70
2023/04/13 08:23:36;;;;;;;11.95;2.65;;;11.20;99.90;;;;;;5120574;27;20043;-70
2023/04/13 08:26:02;;;;;;;13.32;3.25;;;11.30;99.90;;;;;;5118162;27;20701;-70
2023/04/13 08:28:28;;;;;;;13.23;2.63;;;11.30;99.90;;;;;;5119657;27;20020;-70
2023/04/13 08:30:53;;;;;;;12.27;2.45;;;11.20;99.90;;;;;;5122277;27;20386;-70
2023/04/13 08:33:19;;;;;;;17.05;2.72;;;11.20;99.90;;;;;;5124180;27;20132;-70
2023/04/13 08:35:45;;;;;;;11.88;2.67;;;11.20;99.90;;;;;;5120962;27;20031;-69
2023/04/13 08:38:11;;;;;;;10.65;3.10;;;11.20;99.90;;;;;;5118027;27;20028;-71
2023/04/13 08:40:39;;;;;;;17.73;3.17;;;11.20;99.90;;;;;;5122004;28;20453;-72
2023/04/13 08:43:08;;;;;;;18.05;3.55;;;11.20;99.90;;;;;;5117012;27;20024;-70
2023/04/13 08:45:34;;;;;;;9.48;2.08;;;11.20;99.90;;;;;;5120860;28;20038;-70
2023/04/13 08:48:03;;;;;;;15.90;2.80;;;11.30;99.90;;;;;;5127055;27;20016;-70
2023/04/13 08:50:28;;;;;;;10.90;2.92;;;11.20;99.90;;;;;;5127807;27;20020;-70
2023/04/13 08:52:54;;;;;;;10.77;2.60;;;11.30;99.90;;;;;;5123644;28;20532;-70
2023/04/13 08:55:20;;;;;;;10.98;2.83;;;11.40;99.90;;;;;;5123582;27;20028;-68
2023/04/13 08:57:50;;;;;;;11.35;2.70;;;11.40;99.90;;;;;;5129985;28;20027;-68
2023/04/13 09:00:16;;;;;;;12.95;3.05;;;11.40;99.90;;;;;;5123243;28;20023;-69
2023/04/13 09:02:53;;;;;;;12.85;3.35;;;11.30;99.90;;;;;;5122986;27;20148;-68
2023/04/13 09:05:21;;;;;;;13.48;2.72;;;11.30;99.90;;;;;;5122337;28;20091;-69
2023/04/13 09:07:52;;;;;;;9.02;2.63;;;11.40;99.90;;;;;;5123188;27;20577;-70
2023/04/13 09:10:19;;;;;;;14.75;3.20;;;11.30;99.90;;;;;;5123570;28;20035;-69
2023/04/13 09:12:46;;;;;;;10.65;3.13;;;11.40;99.90;;;;;;5115182;27;20030;-69
2023/04/13 09:15:15;;;;;;;14.10;2.60;;;11.40;99.90;;;;;;5120854;27;20091;-69
2023/04/13 09:17:42;;;;;;;13.55;3.28;;;11.40;99.90;;;;;;5125594;27;20016;-69
2023/04/13 09:20:20;;;;;;;11.30;2.70;;;11.40;99.90;;;;;;5121152;28;20084;-69
2023/04/13 09:22:46;;;;;;;14.50;3.20;;;11.50;99.90;;;;;;5123329;28;20026;-68
2023/04/13 09:25:26;;;;;;;14.05;3.90;;;11.60;99.90;;;;;;5123103;28;20035;-69
2023/04/13 09:27:52;;;;;;;15.80;3.75;;;11.70;99.90;;;;;;5121182;27;20483;-69
2023/04/13 09:30:23;;;;;;;6.82;2.53;;;11.70;99.90;;;;;;5123956;28;20020;-69
2023/04/13 09:33:09;;;;;;;11.25;3.53;;;11.70;99.90;;;;;;5119362;27;20069;-69
2023/04/13 09:35:36;;;;;;;13.60;3.33;;;11.70;99.90;;;;;;5122754;28;20429;-69
2023/04/13 09:38:03;;;;;;;18.77;3.45;;;11.70;99.90;;;;;;5123104;27;20118;-69
2023/04/13 09:40:30;;;;;;;10.68;3.50;;;11.70;99.90;;;;;;5125229;27;20022;-69
2023/04/13 09:43:00;;;;;;;15.27;4.35;;;11.80;99.90;;;;;;5126572;28;20072;-68
2023/04/13 09:45:33;;;;;;;12.05;2.97;;;11.80;99.90;;;;;;5125423;27;20080;-69
2023/04/13 09:48:01;;;;;;;;;;;11.80;99.90;;;;;;5131060;27;20023;-70
2023/04/13 09:50:27;;;;;;;17.73;3.47;;;11.80;99.90;;;;;;5121538;27;19907;-70
2023/04/13 09:53:03;;;;;;;10.90;3.13;;;11.80;99.90;;;;;;5129702;27;20023;-70
2023/04/13 09:55:34;;;;;;;10.43;2.92;;;11.80;99.90;;;;;;5130384;27;20027;-69
2023/04/13 09:58:09;;;;;;;16.70;3.60;;;11.80;99.90;;;;;;5124966;27;20067;-71
2023/04/13 10:00:40;;;;;;;16.05;3.28;;;11.90;99.90;;;;;;5124285;27;20023;-69
2023/04/13 10:03:11;;;;;;;12.20;2.93;;;12.00;99.90;;;;;;5123674;27;20020;-69
2023/04/13 10:05:38;;;;;;;13.10;2.70;;;12.00;99.90;;;;;;5128005;27;20055;-69
2023/04/13 10:08:05;;;;;;;15.27;2.50;;;12.10;99.90;;;;;;5124214;27;20023;-68
2023/04/13 10:10:32;;;;;;;8.50;2.22;;;12.10;99.90;;;;;;5125636;27;20548;-69
2023/04/13 10:13:01;;;;;;;12.27;3.00;;;12.30;99.90;;;;;;5126667;27;20023;-68
2023/04/13 10:15:47;;;;;;;18.10;3.65;;;12.30;99.90;;;;;;5131666;27;20031;-69
2023/04/13 10:18:47;;;;;;;10.63;2.10;;;12.20;99.90;;;;;;5101313;27;20146;-69
2023/04/13 10:21:14;;;;;;;12.07;2.53;;;12.30;99.90;;;;;;5122138;27;20046;-68
2023/04/13 10:23:40;;;;;;;13.20;2.85;;;12.40;99.90;;;;;;5117204;27;20051;-68
2023/04/13 10:26:06;;;;;;;12.80;3.10;;;12.50;99.90;;;;;;5125157;27;20536;-69
2023/04/13 10:28:48;;;;;;;12.50;2.97;;;12.80;99.90;;;;;;5130364;27;20031;-70
2023/04/13 10:31:14;;;;;;;10.40;3.07;;;13.10;99.90;;;;;;5122492;27;20034;-69
2023/04/13 10:33:49;;;;;;;12.32;2.47;;;13.40;99.90;;;;;;5127590;27;20023;-69
2023/04/13 10:36:16;;;;;;;7.47;2.28;;;13.50;99.90;;;;;;5124891;27;20091;-70
2023/04/13 10:38:43;;;;;;;9.65;2.50;;;13.50;99.90;;;;;;5119133;27;20026;-70
2023/04/13 10:41:09;;;;;;;10.60;2.50;;;13.50;99.90;;;;;;5122157;27;20070;-70
2023/04/13 10:43:34;;;;;;;8.95;2.58;;;13.80;99.90;;;;;;5121542;27;20062;-70
2023/04/13 10:46:08;;;;;;;11.95;2.55;;;14.10;99.90;;;;;;5125307;27;20094;-69
2023/04/13 10:48:34;;;;;;;9.35;2.00;;;14.30;99.90;;;;;;5122701;27;20020;-71
2023/04/13 10:51:00;;;;;;;8.02;2.05;;;14.30;99.90;;;;;;5117621;27;20569;-70
2023/04/13 10:53:29;;;;;;;11.15;2.05;;;14.20;99.90;;;;;;5120882;27;20094;-70
2023/04/13 10:55:58;;;;;;;7.75;1.90;;;14.10;99.90;;;;;;5122814;27;20019;-68
2023/04/13 10:58:25;;;;;;;12.55;2.10;;;13.90;99.90;;;;;;5125876;27;20525;-69
2023/04/13 11:00:51;;;;;;;9.82;2.28;;;13.80;99.90;;;;;;5126526;27;20052;-69
2023/04/13 11:03:18;;;;;;;9.65;2.70;;;13.80;99.90;;;;;;5123638;27;20208;-70
2023/04/13 11:05:46;;;;;;;9.07;1.95;;;13.80;99.90;;;;;;5116566;27;20034;-69
2023/04/13 11:08:19;;;;;;;11.95;2.28;;;14.10;99.90;;;;;;5121285;27;20023;-69
2023/04/13 11:10:52;;;;;;;9.05;2.42;;;14.30;99.90;;;;;;5120789;27;20106;-70
2023/04/13 11:13:18;;;;;;;8.35;2.50;;;14.60;99.90;;;;;;5128401;27;20126;-70
2023/04/13 11:15:45;;;;;;;13.02;2.42;;;14.70;99.90;;;;;;5132251;27;20115;-70
2023/04/13 11:18:11;;;;;;;8.70;2.30;;;14.80;99.90;;;;;;5133224;27;20019;-71
2023/04/13 11:20:38;;;;;;;5.60;1.80;;;14.90;99.90;;;;;;5112463;28;20028;-71
2023/04/13 11:23:17;;;;;;;6.03;2.17;;;15.00;99.90;;;;;;5113046;28;20020;-70
2023/04/13 11:26:00;;;;;;;7.22;2.13;;;15.20;99.90;;;;;;5112804;28;20122;-70
2023/04/13 11:28:40;;;;;;;8.98;2.15;;;15.20;99.90;;;;;;5124912;27;20016;-71
2023/04/13 11:31:06;;;;;;;8.85;1.70;;;15.00;99.90;;;;;;5122340;27;20027;-71
2023/04/13 11:33:33;;;;;;;11.93;2.47;;;15.00;99.90;;;;;;5133771;27;20106;-70
2023/04/13 11:35:59;;;;;;;16.70;1.95;;;15.00;99.90;;;;;;5119240;27;20507;-71
2023/04/13 11:38:26;;;;;;;11.30;2.35;;;14.90;99.90;;;;;;5133313;27;20023;-71
2023/04/13 11:40:52;;;;;;;9.00;2.00;;;14.80;99.90;;;;;;5134484;27;20024;-70
2023/04/13 11:43:19;;;;;;;12.50;2.47;;;14.70;99.90;;;;;;5133316;27;20079;-71
2023/04/13 11:45:46;;;;;;;15.30;2.17;;;15.10;99.90;;;;;;5133843;27;20028;-69
2023/04/13 11:48:13;;;;;;;8.57;2.17;;;15.20;99.90;;;;;;5133769;27;20099;-70
2023/04/13 11:50:40;;;;;;;7.75;2.15;;;15.20;99.90;;;;;;5133859;27;20026;-70
2023/04/13 11:53:10;;;;;;;14.45;3.22;;;15.30;99.90;;;;;;5132850;27;20019;-70
2023/04/13 11:55:37;;;;;;;13.65;2.53;;;15.10;99.90;;;;;;5133830;27;20016;-69
2023/04/13 11:58:15;;;;;;;12.38;2.13;;;15.20;99.90;;;;;;5133256;27;20424;-70
2023/04/13 12:00:41;;;;;;;11.57;2.25;;;15.20;99.90;;;;;;5132213;27;20023;-69
2023/04/13 12:03:18;;;;;;;6.63;1.73;;;15.30;99.90;;;;;;5133208;27;20478;-71
2023/04/13 12:05:46;;;;;;;12.20;2.20;;;15.20;99.90;;;;;;5133740;27;20031;-70
2023/04/13 12:08:22;;;;;;;5.95;1.75;;;15.40;99.90;;;;;;5132225;27;20027;-68
2023/04/13 12:11:02;;;;;;;8.95;1.88;;;15.40;99.90;;;;;;5124348;27;20034;-70
2023/04/13 12:13:39;;;;;;;5.70;1.88;;;15.60;99.90;;;;;;5095623;27;20072;-69
2023/04/13 12:16:05;;;;;;;8.20;1.63;;;15.80;99.90;;;;;;5121342;27;20022;-69
2023/04/13 12:18:31;;;;;;;8.00;1.45;;;16.00;99.90;;;;;;5126548;27;20027;-70
2023/04/13 12:21:00;;;;;;;6.85;1.90;;;16.10;99.90;;;;;;5126609;27;20034;-68
2023/04/13 12:23:26;;;;;;;3.30;1.33;;;16.30;99.90;;;;;;5126096;27;20103;-69
2023/04/13 12:26:04;;;;;;;6.60;1.52;;;16.20;99.90;;;;;;5125062;27;20084;-69
2023/04/13 12:28:35;;;;;;;5.00;1.50;;;16.20;99.90;;;;;;5124524;27;20035;-70
2023/04/13 12:31:11;;;;;;;7.35;1.52;;;16.30;99.90;;;;;;5123037;27;20027;-69
2023/04/13 12:33:38;;;;;;;10.00;2.03;;;16.50;99.90;;;;;;5122692;27;20026;-71
2023/04/13 12:36:10;;;;;;;10.60;2.10;;;16.60;99.90;;;;;;5122663;27;20024;-70
2023/04/13 12:38:36;;;;;;;4.80;1.55;;;16.80;99.90;;;;;;5122830;27;20024;-73
2023/04/13 12:41:02;;;;;;;4.43;1.65;;;16.90;99.90;;;;;;5121678;27;20063;-70
2023/04/13 12:43:28;;;;;;;4.88;1.50;;;17.10;99.90;;;;;;5122882;28;20608;-70
2023/04/13 12:45:54;;;;;;;6.72;1.55;;;17.00;99.90;;;;;;5117065;27;20034;-69
2023/04/13 12:48:21;;;;;;;10.50;1.75;;;17.00;99.90;;;;;;5122100;28;20023;-69
2023/04/13 12:50:47;;;;;;;6.80;1.40;;;17.00;99.90;;;;;;5123272;27;20028;-68
2023/04/13 12:53:13;;;;;;;7.05;1.73;;;17.10;99.90;;;;;;5122285;27;20049;-69